Airfield :
LOGIN :

Register | Disclaimer

   EN    FR    IT 

 










Legend :    VFR   Marginal VFR   IFR   Intensive IFR   Very Intensive IFR
Visi :
Ceiling :
>= 8 km
>= 3000ft
5 to 8 km
1000 to 3000 ft
1500m to 5 km
500 to 1000 ft
800 to 1500m
200 to 500 ft
< 800m
< 200 ft
Symbols :   Thunderstorms  Fog  Heavy snow  Heavy precipitations  Wind > 20 kt
SIGMETs :     Misc.  Thunderstorms  Icing  Turbulence  Mountain Waves  Volcanic Ashes






- Airport Elevation : 870 ft
- IATA code : ETZ


LFJL - Metz Nancy Lorraine

CURRENT METAR :
  • 150430Z AUTO 23016KT 9999 -RA BKN010/// OVC014/// ///CB 09/09 Q1000 TEMPO 23022G35KT 4000 RA BKN010

EXPIRED METARs :
  • 150400Z AUTO 23014KT 4500 -RA BR BKN009/// OVC023/// ///TCU 09/09 Q1000 TEMPO 23022G35KT RA BKN010
  • 150330Z AUTO 23014KT 9999 -DZ BKN013/// BKN019/// OVC034/// ///TCU 09/08 Q1000 TEMPO 23022G35KT 4000 RA BKN010
  • 150300Z AUTO 22008KT 9000 -RA FEW002 BKN020 BKN027 09/09 Q1000 TEMPO 23022G35KT 4000 RA BKN010
  • 150230Z AUTO 25010KT 3700 -RA BR BKN007/// BKN013/// OVC018/// ///TCU 09/09 Q1000 TEMPO 23022G35KT RA BKN010
  • 150200Z AUTO 19010KT 9999 BKN008/// OVC012/// ///TCU 09/08 Q1000 TEMPO 23022G35KT 4000 RA BKN010

TAF TAF LFJL
Valid from the 15 at 00:00 until the 16 at 00:00 UTC


142300Z 1500/1524 23015G25KT 9999 SCT030 BKN040
TEMPO 1500/1510 23022G35KT 4000 RA BKN010
BECMG 1510/1512 22008KT
TEMPO 1510/1524 -SHRA



MET'MAP, your aeronautical weather chart ! - Copyright ORBIFLY December 2007 - Disclaimer

ORBIFLY MET'MAP TEAM :

Programming & Development : Alexandra Zaïnal
Concept & original design : Baudouin d'Aumeries
Assistance for programming : Marc-Olivier Méhu
Technical & hardware support : Manuel Goepfert

Contact : metmap@orbifly.com




SOURCES & CREDITS :

   NOAA